createdAt,value
2018-02-18T00:01:05.850Z,-0.60
2018-02-18T00:03:33.347Z,-0.60
2018-02-18T00:06:00.839Z,-0.50
2018-02-18T00:08:29.121Z,-0.50
2018-02-18T00:10:57.379Z,-0.60
2018-02-18T00:13:24.867Z,-0.60
2018-02-18T00:15:52.370Z,-0.50
2018-02-18T00:18:19.859Z,-0.50
2018-02-18T00:20:48.115Z,-0.50
2018-02-18T00:23:15.611Z,-0.50
2018-02-18T00:25:43.104Z,-0.50
2018-02-18T00:28:10.586Z,-0.40
2018-02-18T00:30:38.096Z,-0.40
2018-02-18T00:33:05.578Z,-0.40
2018-02-18T00:35:33.071Z,-0.40
2018-02-18T00:38:00.575Z,-0.50
2018-02-18T00:40:28.067Z,-0.50
2018-02-18T00:42:55.567Z,-0.40
2018-02-18T00:45:23.820Z,-0.40
2018-02-18T00:47:51.315Z,-0.50
2018-02-18T00:50:18.832Z,-0.50
2018-02-18T00:52:46.311Z,-0.50
2018-02-18T00:55:14.570Z,-0.50
2018-02-18T00:57:42.843Z,-0.50
2018-02-18T01:00:10.323Z,-0.60
2018-02-18T01:02:38.586Z,-0.60
2018-02-18T01:05:06.851Z,-0.50
2018-02-18T01:07:34.340Z,-0.50
2018-02-18T01:10:01.835Z,-0.50
2018-02-18T01:12:29.326Z,-0.40
2018-02-18T01:14:56.819Z,-0.50
2018-02-18T01:17:24.329Z,-0.40
2018-02-18T01:19:51.820Z,-0.40
2018-02-18T01:22:20.075Z,-0.40
2018-02-18T01:24:47.587Z,-0.40
2018-02-18T01:27:15.084Z,-0.40
2018-02-18T01:29:42.571Z,-0.40
2018-02-18T01:32:10.839Z,-0.50
2018-02-18T01:34:39.098Z,-0.50
2018-02-18T01:37:06.586Z,-0.50
2018-02-18T01:39:34.087Z,-0.50
2018-02-18T01:42:01.577Z,-0.50
2018-02-18T01:44:29.855Z,-0.60
2018-02-18T01:46:58.152Z,-0.50
2018-02-18T01:49:25.642Z,-0.60
2018-02-18T01:51:53.147Z,-0.60
2018-02-18T01:54:21.411Z,-0.60
2018-02-18T01:56:48.899Z,-0.60
2018-02-18T01:59:16.397Z,-0.60
2018-02-18T02:01:43.902Z,-0.60
2018-02-18T02:04:12.167Z,-0.60
2018-02-18T02:06:39.659Z,-0.60
2018-02-18T02:09:07.159Z,-0.60
2018-02-18T02:11:34.644Z,-0.60
2018-02-18T02:14:02.898Z,-0.60
2018-02-18T02:16:30.416Z,-0.60
2018-02-18T02:18:57.919Z,-0.60
2018-02-18T02:21:25.403Z,-0.60
2018-02-18T02:23:53.683Z,-0.60
2018-02-18T02:26:21.939Z,-0.60
2018-02-18T02:28:49.433Z,-0.60
2018-02-18T02:31:16.944Z,-0.60
2018-02-18T02:33:44.442Z,-0.60
2018-02-18T02:36:11.931Z,-0.70
2018-02-18T02:38:39.431Z,-0.60
2018-02-18T02:41:06.919Z,-0.60
2018-02-18T02:43:34.419Z,-0.60
2018-02-18T02:46:01.921Z,-0.60
2018-02-18T02:48:29.448Z,-0.60
2018-02-18T02:50:56.938Z,-0.60
2018-02-18T02:53:25.193Z,-0.60
2018-02-18T02:55:52.708Z,-0.60
2018-02-18T02:58:20.199Z,-0.60
2018-02-18T03:00:47.696Z,-0.60
2018-02-18T03:03:15.223Z,-0.60
2018-02-18T03:05:42.714Z,-0.70
2018-02-18T03:08:10.207Z,-0.70
2018-02-18T03:10:37.711Z,-0.70
2018-02-18T03:13:05.967Z,-0.70
2018-02-18T03:15:33.473Z,-0.70
2018-02-18T03:18:00.987Z,-0.70
2018-02-18T03:20:28.488Z,-0.70
2018-02-18T03:22:55.979Z,-0.70
2018-02-18T03:25:23.480Z,-0.70
2018-02-18T03:27:51.738Z,-0.80
2018-02-18T03:30:19.249Z,-0.80
2018-02-18T03:32:46.748Z,-0.80
2018-02-18T03:35:14.244Z,-0.80
2018-02-18T03:37:41.752Z,-1.00
2018-02-18T03:40:09.240Z,-1.10
2018-02-18T03:42:37.519Z,-1.20
2018-02-18T03:45:05.771Z,-1.30
2018-02-18T03:47:33.260Z,-1.30
2018-02-18T03:50:00.759Z,-1.40
2018-02-18T03:52:28.251Z,-1.40
2018-02-18T03:54:56.511Z,-1.50
2018-02-18T03:57:24.020Z,-1.50
2018-02-18T03:59:51.528Z,-1.70
2018-02-18T04:02:19.031Z,-1.80
2018-02-18T04:04:46.535Z,-1.90
2018-02-18T04:07:14.032Z,-2.00
2018-02-18T04:09:42.283Z,-2.30
2018-02-18T04:12:09.787Z,-2.30
2018-02-18T04:14:37.296Z,-2.40
2018-02-18T04:17:04.812Z,-2.50
2018-02-18T04:19:32.334Z,-2.50
2018-02-18T04:22:00.591Z,-2.60
2018-02-18T04:24:28.086Z,-2.60
2018-02-18T04:26:55.603Z,-2.70
2018-02-18T04:29:23.096Z,-2.70
2018-02-18T04:31:50.592Z,-2.70
2018-02-18T04:34:18.118Z,-2.70
2018-02-18T04:36:45.606Z,-2.70
2018-02-18T04:39:13.107Z,-2.70
2018-02-18T04:41:41.419Z,-2.60
2018-02-18T04:44:08.929Z,-2.60
2018-02-18T04:46:36.423Z,-2.50
2018-02-18T04:49:03.927Z,-2.50
2018-02-18T04:51:31.424Z,-2.50
2018-02-18T04:53:59.696Z,-2.20
2018-02-18T04:56:27.988Z,-2.10
2018-02-18T04:58:55.501Z,-2.10
2018-02-18T05:01:23.020Z,-2.00
2018-02-18T05:03:50.510Z,-1.90
2018-02-18T05:06:18.779Z,-1.90
2018-02-18T05:08:46.289Z,-2.00
2018-02-18T05:11:13.787Z,-2.00
2018-02-18T05:13:41.283Z,-2.10
2018-02-18T05:16:08.799Z,-2.10
2018-02-18T05:18:36.286Z,-2.10
2018-02-18T05:21:03.782Z,-2.10
2018-02-18T05:23:31.296Z,-2.10
2018-02-18T05:25:58.802Z,-2.10
2018-02-18T05:28:26.290Z,-2.00
2018-02-18T05:30:54.571Z,-1.90
2018-02-18T05:33:22.831Z,-1.80
2018-02-18T05:35:50.331Z,-1.90
2018-02-18T05:38:17.854Z,-1.90
2018-02-18T05:40:45.351Z,-1.80
2018-02-18T05:43:12.840Z,-1.80
2018-02-18T05:45:40.352Z,-1.60
2018-02-18T05:48:07.842Z,-1.60
2018-02-18T05:50:36.095Z,-1.50
2018-02-18T05:53:03.603Z,-1.50
2018-02-18T05:55:31.107Z,-1.40
2018-02-18T05:57:58.595Z,-1.40
2018-02-18T06:00:26.873Z,-1.40
2018-02-18T06:02:54.364Z,-1.40
2018-02-18T06:05:21.852Z,-1.30
2018-02-18T06:07:49.363Z,-1.40
2018-02-18T06:10:16.859Z,-1.40
2018-02-18T06:12:44.367Z,-1.30
2018-02-18T06:15:11.887Z,-1.30
2018-02-18T06:17:39.371Z,-1.20
2018-02-18T06:20:07.636Z,-1.30
2018-02-18T06:22:35.902Z,-1.30
2018-02-18T06:25:03.400Z,-1.30
2018-02-18T06:27:30.905Z,-1.30
2018-02-18T06:29:58.408Z,-1.30
2018-02-18T06:32:25.894Z,-1.20
2018-02-18T06:34:53.387Z,-1.20
2018-02-18T06:37:20.884Z,-1.30
2018-02-18T06:39:48.375Z,-1.20
2018-02-18T06:42:15.862Z,-1.20
2018-02-18T06:44:43.369Z,-1.20
2018-02-18T06:47:10.867Z,-1.20
2018-02-18T06:49:38.355Z,-1.20
2018-02-18T06:52:06.631Z,-1.20
2018-02-18T06:54:34.906Z,-1.10
2018-02-18T06:57:03.210Z,-1.10
2018-02-18T06:59:30.808Z,-1.10
2018-02-18T07:01:58.336Z,-1.10
2018-02-18T07:04:25.827Z,-1.00
2018-02-18T07:06:53.464Z,-1.00
2018-02-18T07:09:21.015Z,-1.00
2018-02-18T07:11:48.470Z,-0.90
2018-02-18T07:14:16.000Z,-0.90
2018-02-18T07:16:44.296Z,-0.80
2018-02-18T07:19:11.803Z,-0.80
2018-02-18T07:21:39.302Z,-0.70
2018-02-18T07:24:06.791Z,-0.70
2018-02-18T07:26:34.282Z,-0.60
2018-02-18T07:29:01.787Z,-0.60
2018-02-18T07:31:29.275Z,-0.50
2018-02-18T07:33:56.771Z,-0.50
2018-02-18T07:36:24.291Z,-0.40
2018-02-18T07:38:51.784Z,-0.20
2018-02-18T07:41:19.275Z,-0.30
2018-02-18T07:43:46.783Z,-0.20
2018-02-18T07:46:14.277Z,-0.10
2018-02-18T07:48:42.536Z,0.00
2018-02-18T07:51:10.021Z,0.00
2018-02-18T07:53:37.509Z,0.00
2018-02-18T07:56:05.007Z,0.20
2018-02-18T07:58:32.495Z,0.20
2018-02-18T08:00:59.995Z,0.30
2018-02-18T08:03:27.484Z,0.30
2018-02-18T08:05:55.859Z,0.40
2018-02-18T08:08:23.351Z,0.40
2018-02-18T08:10:50.839Z,0.50
2018-02-18T08:13:18.347Z,0.50
2018-02-18T08:15:46.619Z,0.70
2018-02-18T08:18:14.872Z,0.70
2018-02-18T08:20:42.370Z,0.70
2018-02-18T08:23:09.872Z,0.80
2018-02-18T08:25:37.373Z,0.80
2018-02-18T08:28:05.654Z,0.90
2018-02-18T08:30:33.914Z,0.90
2018-02-18T08:33:02.179Z,0.90
2018-02-18T08:35:29.671Z,0.90
2018-02-18T08:37:57.168Z,1.10
2018-02-18T08:40:24.660Z,1.10
2018-02-18T08:42:53.002Z,1.30
2018-02-18T08:45:20.560Z,1.30
2018-02-18T08:47:48.055Z,1.30
2018-02-18T08:50:16.327Z,1.50
2018-02-18T08:52:43.812Z,1.50
2018-02-18T08:55:11.303Z,1.60
2018-02-18T08:57:38.851Z,1.70
2018-02-18T09:00:06.360Z,1.70
2018-02-18T09:02:33.873Z,1.80
2018-02-18T09:05:01.385Z,1.80
2018-02-18T09:07:29.636Z,1.90
2018-02-18T09:09:57.145Z,1.90
2018-02-18T09:12:24.660Z,2.00
2018-02-18T09:14:52.142Z,2.00
2018-02-18T09:17:19.647Z,2.00
2018-02-18T09:19:47.916Z,2.20
2018-02-18T09:22:15.422Z,2.20
2018-02-18T09:24:43.765Z,2.20
2018-02-18T09:27:11.355Z,2.20
2018-02-18T09:29:39.624Z,2.30
2018-02-18T09:32:07.895Z,2.10
2018-02-18T09:34:35.399Z,2.20
2018-02-18T09:37:02.888Z,2.10
2018-02-18T09:39:30.395Z,2.20
2018-02-18T09:41:57.899Z,2.10
2018-02-18T09:44:25.397Z,2.10
2018-02-18T09:46:53.662Z,2.40
2018-02-18T09:49:21.170Z,2.30
2018-02-18T09:51:48.667Z,2.40
2018-02-18T09:54:16.187Z,2.50
2018-02-18T09:56:43.762Z,2.60
2018-02-18T09:59:11.301Z,2.70
2018-02-18T10:01:38.798Z,2.70
2018-02-18T10:04:06.352Z,2.80
2018-02-18T10:06:33.903Z,2.90
2018-02-18T10:09:01.583Z,3.00
2018-02-18T10:11:29.120Z,3.10
2018-02-18T10:13:56.678Z,3.30
2018-02-18T10:16:24.216Z,3.30
2018-02-18T10:18:51.766Z,3.30
2018-02-18T10:21:19.276Z,3.40
2018-02-18T10:23:46.789Z,3.40
2018-02-18T10:26:14.286Z,3.50
2018-02-18T10:28:41.780Z,3.50
2018-02-18T10:31:09.279Z,3.40
2018-02-18T10:33:36.776Z,3.40
2018-02-18T10:36:05.031Z,3.20
2018-02-18T10:38:32.539Z,3.20
2018-02-18T10:41:00.032Z,3.30
2018-02-18T10:43:27.515Z,3.30
2018-02-18T10:45:55.019Z,3.40
2018-02-18T10:48:22.600Z,3.60
2018-02-18T10:50:50.095Z,3.60
2018-02-18T10:53:17.571Z,3.50
2018-02-18T10:55:45.829Z,3.20
2018-02-18T10:58:13.352Z,3.20
2018-02-18T11:00:40.968Z,3.10
2018-02-18T11:03:08.460Z,3.20
2018-02-18T11:05:36.774Z,3.10
2018-02-18T11:08:04.289Z,3.10
2018-02-18T11:10:31.916Z,3.10
2018-02-18T11:13:01.029Z,2.80
2018-02-18T11:15:28.574Z,2.80
2018-02-18T11:17:56.160Z,2.90
2018-02-18T11:20:23.670Z,3.00
2018-02-18T11:22:51.943Z,3.00
2018-02-18T11:25:19.579Z,3.00
2018-02-18T11:27:47.137Z,3.00
2018-02-18T11:30:14.627Z,3.10
2018-02-18T11:32:42.912Z,3.30
2018-02-18T11:35:10.420Z,3.30
2018-02-18T11:37:37.900Z,3.30
2018-02-18T11:40:05.423Z,3.30
2018-02-18T11:42:32.936Z,3.30
2018-02-18T11:45:01.200Z,3.20
2018-02-18T11:47:28.708Z,3.10
2018-02-18T11:49:56.196Z,3.00
2018-02-18T11:52:23.706Z,3.00
2018-02-18T11:54:51.212Z,3.00
2018-02-18T11:57:18.742Z,2.90
2018-02-18T11:59:46.219Z,2.80
2018-02-18T12:02:13.700Z,2.80
2018-02-18T12:04:41.179Z,2.90
2018-02-18T12:07:09.467Z,3.20
2018-02-18T12:09:36.956Z,3.10
2018-02-18T12:12:04.435Z,3.10
2018-02-18T12:14:31.963Z,3.20
2018-02-18T12:16:59.448Z,3.30
2018-02-18T12:19:27.003Z,3.30
2018-02-18T12:21:54.511Z,3.30
2018-02-18T12:24:22.031Z,3.40
2018-02-18T12:26:50.371Z,3.50
2018-02-18T12:29:17.877Z,3.40
2018-02-18T12:31:46.163Z,3.50
2018-02-18T12:34:14.533Z,3.60
2018-02-18T12:36:42.823Z,3.60
2018-02-18T12:39:11.104Z,3.70
2018-02-18T12:41:39.359Z,3.70
2018-02-18T12:44:07.654Z,3.60
2018-02-18T12:46:35.939Z,3.60
2018-02-18T12:49:03.447Z,3.50
2018-02-18T12:51:30.950Z,3.60
2018-02-18T12:53:59.196Z,3.60
2018-02-18T12:56:26.695Z,3.60
2018-02-18T12:58:54.198Z,3.60
2018-02-18T13:01:21.698Z,3.70
2018-02-18T13:03:49.192Z,3.70
2018-02-18T13:06:16.679Z,3.70
2018-02-18T13:08:44.179Z,3.70
2018-02-18T13:11:11.683Z,3.80
2018-02-18T13:13:39.164Z,3.80
2018-02-18T13:16:06.665Z,4.00
2018-02-18T13:18:34.238Z,4.00
2018-02-18T13:21:01.752Z,3.90
2018-02-18T13:23:30.012Z,3.50
2018-02-18T13:25:57.496Z,3.50
2018-02-18T13:28:25.759Z,3.60
2018-02-18T13:30:54.003Z,3.70
2018-02-18T13:33:21.509Z,3.70
2018-02-18T13:35:48.991Z,3.70
2018-02-18T13:38:16.503Z,3.60
2018-02-18T13:40:44.751Z,3.40
2018-02-18T13:43:12.235Z,3.40
2018-02-18T13:45:40.516Z,3.30
2018-02-18T13:48:08.771Z,3.30
2018-02-18T13:50:36.305Z,3.20
2018-02-18T13:53:03.801Z,3.20
2018-02-18T13:55:31.283Z,3.20
2018-02-18T13:57:58.824Z,3.40
2018-02-18T14:00:27.062Z,3.40
2018-02-18T14:02:54.543Z,3.40
2018-02-18T14:05:22.042Z,3.40
2018-02-18T14:07:49.535Z,3.40
2018-02-18T14:10:17.018Z,3.30
2018-02-18T14:12:44.516Z,3.30
2018-02-18T14:15:11.992Z,3.30
2018-02-18T14:17:39.488Z,3.30
2018-02-18T14:20:07.002Z,3.40
2018-02-18T14:22:34.496Z,3.30
2018-02-18T14:25:02.000Z,3.30
2018-02-18T14:27:29.499Z,3.10
2018-02-18T14:29:56.984Z,3.10
2018-02-18T14:32:25.248Z,3.10
2018-02-18T14:34:52.739Z,3.10
2018-02-18T14:37:20.270Z,3.00
2018-02-18T14:39:48.547Z,3.00
2018-02-18T14:42:28.684Z,3.10
2018-02-18T14:45:08.225Z,3.10
2018-02-18T14:47:47.512Z,3.10
2018-02-18T14:50:27.843Z,3.10
2018-02-18T14:53:07.915Z,3.00
2018-02-18T14:55:47.207Z,3.00
2018-02-18T14:58:14.726Z,2.90
2018-02-18T15:00:42.219Z,3.00
2018-02-18T15:03:09.742Z,2.90
2018-02-18T15:05:37.248Z,2.90
2018-02-18T15:08:04.751Z,2.80
2018-02-18T15:10:32.309Z,2.70
2018-02-18T15:12:59.855Z,2.60
2018-02-18T15:15:27.362Z,2.60
2018-02-18T15:17:54.883Z,2.50
2018-02-18T15:20:22.376Z,2.50
2018-02-18T15:22:49.875Z,2.50
2018-02-18T15:25:18.167Z,2.50
2018-02-18T15:27:45.699Z,2.50
2018-02-18T15:30:13.963Z,2.40
2018-02-18T15:32:41.476Z,2.40
2018-02-18T15:35:08.995Z,2.40
2018-02-18T15:37:36.499Z,2.30
2018-02-18T15:40:03.991Z,2.30
2018-02-18T15:42:31.507Z,2.30
2018-02-18T15:44:59.060Z,2.30
2018-02-18T15:47:26.569Z,2.30
2018-02-18T15:49:54.089Z,2.30
2018-02-18T15:52:22.360Z,2.20
2018-02-18T15:54:49.866Z,2.20
2018-02-18T15:57:18.189Z,2.20
2018-02-18T15:59:45.723Z,2.10
2018-02-18T16:02:13.235Z,2.10
2018-02-18T16:04:40.755Z,2.10
2018-02-18T16:07:08.271Z,2.00
2018-02-18T16:09:36.552Z,1.80
2018-02-18T16:12:04.810Z,1.80
2018-02-18T16:14:32.333Z,1.80
2018-02-18T16:16:59.825Z,1.80
2018-02-18T16:19:27.323Z,1.80
2018-02-18T16:21:54.843Z,1.80
2018-02-18T16:24:22.358Z,1.80
2018-02-18T16:26:49.857Z,1.70
2018-02-18T16:29:17.361Z,1.70
2018-02-18T16:31:44.851Z,1.60
2018-02-18T16:34:12.344Z,1.50
2018-02-18T16:36:40.628Z,1.40
2018-02-18T16:39:08.884Z,1.40
2018-02-18T16:41:36.386Z,1.40
2018-02-18T16:44:03.920Z,1.40
2018-02-18T16:46:31.420Z,1.30
2018-02-18T16:48:58.928Z,1.40
2018-02-18T16:51:27.211Z,1.40
2018-02-18T16:53:55.472Z,1.30
2018-02-18T16:56:22.969Z,1.30
2018-02-18T16:58:50.480Z,1.20
2018-02-18T17:01:17.989Z,1.20
2018-02-18T17:03:45.491Z,1.20
2018-02-18T17:06:13.015Z,1.20
2018-02-18T17:08:40.504Z,1.10
2018-02-18T17:11:07.999Z,1.10
2018-02-18T17:13:36.260Z,1.10
2018-02-18T17:16:04.528Z,1.10
2018-02-18T17:18:32.024Z,1.10
2018-02-18T17:20:59.521Z,1.10
2018-02-18T17:23:27.036Z,1.10
2018-02-18T17:25:54.711Z,1.20
2018-02-18T17:28:22.623Z,1.10
2018-02-18T17:30:50.433Z,1.10
2018-02-18T17:33:17.974Z,1.20
2018-02-18T17:35:46.232Z,1.10
2018-02-18T17:38:13.736Z,1.10
2018-02-18T17:40:41.407Z,1.10
2018-02-18T17:43:08.894Z,1.10
2018-02-18T17:45:36.398Z,1.10
2018-02-18T17:48:03.903Z,1.00
2018-02-18T17:50:31.434Z,1.00
2018-02-18T17:52:58.932Z,1.00
2018-02-18T17:55:27.208Z,0.90
2018-02-18T17:57:54.723Z,1.00
2018-02-18T18:00:22.246Z,1.00
2018-02-18T18:02:50.496Z,0.90
2018-02-18T18:05:18.007Z,0.90
2018-02-18T18:07:45.500Z,0.90
2018-02-18T18:10:12.989Z,0.80
2018-02-18T18:12:41.276Z,0.80
2018-02-18T18:15:08.753Z,0.80
2018-02-18T18:17:36.242Z,0.80
2018-02-18T18:20:03.732Z,0.70
2018-02-18T18:22:31.980Z,0.70
2018-02-18T18:24:59.487Z,0.60
2018-02-18T18:27:26.978Z,0.60
2018-02-18T18:29:54.479Z,0.60
2018-02-18T18:32:22.755Z,0.50
2018-02-18T18:34:51.040Z,0.50
2018-02-18T18:37:19.299Z,0.30
2018-02-18T18:39:46.807Z,0.30
2018-02-18T18:42:14.329Z,0.20
2018-02-18T18:44:42.576Z,0.00
2018-02-18T18:47:10.120Z,-0.10
2018-02-18T18:49:38.384Z,-0.30
2018-02-18T18:52:05.883Z,-0.30
2018-02-18T18:54:33.395Z,-0.40
2018-02-18T18:57:00.912Z,-0.40
2018-02-18T18:59:28.404Z,-0.50
2018-02-18T19:01:56.696Z,-0.60
2018-02-18T19:04:24.922Z,-0.60
2018-02-18T19:06:52.439Z,-0.70
2018-02-18T19:09:19.952Z,-0.80
2018-02-18T19:11:47.443Z,-0.80
2018-02-18T19:14:15.160Z,-0.90
2018-02-18T19:16:42.677Z,-0.90
2018-02-18T19:19:10.202Z,-0.90
2018-02-18T19:21:38.467Z,-1.00
2018-02-18T19:24:05.985Z,-1.00
2018-02-18T19:26:33.484Z,-1.00
2018-02-18T19:29:01.767Z,-1.10
2018-02-18T19:31:30.061Z,-1.00
2018-02-18T19:33:57.560Z,-1.10
2018-02-18T19:36:25.051Z,-1.10
2018-02-18T19:38:52.754Z,-1.10
2018-02-18T19:41:20.375Z,-1.20
2018-02-18T19:43:48.716Z,-1.30
2018-02-18T19:46:16.227Z,-1.30
2018-02-18T19:48:44.945Z,-1.40
2018-02-18T19:51:12.501Z,-1.40
2018-02-18T19:53:40.008Z,-1.50
2018-02-18T19:56:07.587Z,-1.50
2018-02-18T19:58:35.850Z,-1.50
2018-02-18T20:01:03.637Z,-1.50
2018-02-18T20:03:31.907Z,-1.60
2018-02-18T20:06:00.167Z,-1.70
2018-02-18T20:08:27.675Z,-1.70
2018-02-18T20:10:55.217Z,-1.70
2018-02-18T20:13:22.717Z,-1.70
2018-02-18T20:15:50.219Z,-1.80
2018-02-18T20:18:18.487Z,-1.80
2018-02-18T20:20:47.768Z,-1.80
2018-02-18T20:23:16.194Z,-1.80
2018-02-18T20:25:43.725Z,-1.80
2018-02-18T20:28:11.993Z,-1.90
2018-02-18T20:30:40.278Z,-2.00
2018-02-18T20:33:08.625Z,-2.00
2018-02-18T20:35:36.208Z,-2.00
2018-02-18T20:38:04.129Z,-2.00
2018-02-18T20:40:31.781Z,-2.00
2018-02-18T20:42:59.652Z,-2.10
2018-02-18T20:45:27.156Z,-2.00
2018-02-18T20:47:54.724Z,-2.00
2018-02-18T20:50:23.009Z,-2.10
2018-02-18T20:52:52.194Z,-2.10
2018-02-18T20:55:20.701Z,-2.10
2018-02-18T20:57:48.211Z,-2.10
2018-02-18T21:00:15.699Z,-2.10
2018-02-18T21:02:43.965Z,-2.20
2018-02-18T21:05:12.263Z,-2.20
2018-02-18T21:07:39.759Z,-2.20
2018-02-18T21:10:07.290Z,-2.20
2018-02-18T21:12:34.815Z,-2.10
2018-02-18T21:15:03.105Z,-2.20
2018-02-18T21:17:30.761Z,-2.20
2018-02-18T21:19:58.255Z,-2.30
2018-02-18T21:22:25.748Z,-2.30
2018-02-18T21:24:53.286Z,-2.40
2018-02-18T21:27:20.957Z,-2.50
2018-02-18T21:29:48.443Z,-2.50
2018-02-18T21:32:15.960Z,-2.60
2018-02-18T21:34:43.472Z,-2.70
2018-02-18T21:37:11.023Z,-2.70
2018-02-18T21:39:38.595Z,-2.80
2018-02-18T21:42:06.090Z,-2.80
2018-02-18T21:44:33.676Z,-2.80
2018-02-18T21:47:01.175Z,-2.90
2018-02-18T21:49:28.834Z,-3.00
2018-02-18T21:51:56.441Z,-3.10
2018-02-18T21:54:23.959Z,-3.20
2018-02-18T21:56:51.520Z,-3.20
2018-02-18T21:59:19.798Z,-3.20
2018-02-18T22:01:48.063Z,-3.20
2018-02-18T22:04:15.577Z,-3.20
2018-02-18T22:06:43.251Z,-3.20
2018-02-18T22:09:10.794Z,-3.20
2018-02-18T22:11:38.316Z,-3.30
2018-02-18T22:14:05.873Z,-3.30
2018-02-18T22:16:33.379Z,-3.30
2018-02-18T22:19:00.877Z,-3.40
2018-02-18T22:21:28.408Z,-3.30
2018-02-18T22:23:55.983Z,-3.40
2018-02-18T22:26:23.548Z,-3.30
2018-02-18T22:28:51.835Z,-3.40
2018-02-18T22:31:19.334Z,-3.50
2018-02-18T22:33:47.046Z,-3.50
2018-02-18T22:36:14.601Z,-3.50
2018-02-18T22:38:42.108Z,-3.40
2018-02-18T22:41:09.666Z,-3.40
2018-02-18T22:43:37.253Z,-3.50
2018-02-18T22:46:04.785Z,-3.50
2018-02-18T22:48:32.363Z,-3.60
2018-02-18T22:50:59.984Z,-3.70
2018-02-18T22:53:28.262Z,-3.90
2018-02-18T22:55:55.777Z,-3.90
2018-02-18T22:58:23.284Z,-4.00
2018-02-18T23:00:51.589Z,-3.90
2018-02-18T23:03:19.144Z,-3.90
2018-02-18T23:05:52.515Z,-3.90
2018-02-18T23:08:21.783Z,-3.90
2018-02-18T23:10:49.320Z,-4.00
2018-02-18T23:13:16.887Z,-4.00
2018-02-18T23:15:44.386Z,-4.00
2018-02-18T23:18:11.891Z,-4.00
2018-02-18T23:20:51.957Z,-4.10
2018-02-18T23:23:19.484Z,-4.10
2018-02-18T23:25:47.001Z,-4.20
2018-02-18T23:28:14.508Z,-4.20
2018-02-18T23:30:42.032Z,-4.40
2018-02-18T23:33:09.533Z,-4.60
2018-02-18T23:35:37.091Z,-4.70
2018-02-18T23:38:04.615Z,-4.70
2018-02-18T23:40:32.872Z,-4.70
2018-02-18T23:43:00.859Z,-4.70
2018-02-18T23:45:29.143Z,-4.70
2018-02-18T23:47:56.689Z,-4.70
2018-02-18T23:50:24.227Z,-4.70
2018-02-18T23:52:51.719Z,-4.70
2018-02-18T23:55:20.031Z,-4.60
2018-02-18T23:57:47.552Z,-4.70
